createdAt,value
2022-08-03T00:00:42.834Z,21.20
2022-08-03T00:03:11.995Z,21.10
2022-08-03T00:05:41.095Z,21.10
2022-08-03T00:08:31.589Z,21.00
2022-08-03T00:11:00.788Z,21.00
2022-08-03T00:13:29.973Z,21.00
2022-08-03T00:15:58.905Z,21.10
2022-08-03T00:18:28.083Z,21.00
2022-08-03T00:20:57.097Z,20.90
2022-08-03T00:23:29.365Z,20.80
2022-08-03T00:26:16.793Z,20.80
2022-08-03T00:28:45.838Z,20.80
2022-08-03T00:31:14.997Z,20.80
2022-08-03T00:33:59.305Z,20.80
2022-08-03T00:36:32.075Z,20.70
2022-08-03T00:39:01.111Z,20.70
2022-08-03T00:41:31.557Z,20.70
2022-08-03T00:44:00.476Z,20.70
2022-08-03T00:46:29.486Z,20.80
2022-08-03T00:48:58.544Z,20.80
2022-08-03T00:51:27.997Z,20.80
2022-08-03T00:53:57.207Z,20.70
2022-08-03T00:56:26.487Z,20.70
2022-08-03T00:58:59.720Z,20.60
2022-08-03T01:01:32.190Z,20.60
2022-08-03T01:04:01.676Z,20.60
2022-08-03T01:06:43.012Z,20.50
2022-08-03T01:09:18.097Z,20.50
2022-08-03T01:12:00.188Z,20.40
2022-08-03T01:14:39.946Z,20.40
2022-08-03T01:17:16.720Z,20.30
2022-08-03T01:19:55.338Z,20.30
2022-08-03T01:22:46.500Z,20.30
2022-08-03T01:25:30.574Z,20.40
2022-08-03T01:28:13.387Z,20.40
2022-08-03T01:30:47.917Z,20.30
2022-08-03T01:33:22.111Z,20.40
2022-08-03T01:35:58.997Z,20.50
2022-08-03T01:38:34.227Z,20.50
2022-08-03T01:41:09.476Z,20.50
2022-08-03T01:44:27.816Z,20.40
2022-08-03T01:46:36.410Z,20.30
2022-08-03T01:49:11.217Z,20.20
2022-08-03T01:51:57.850Z,20.20
2022-08-03T01:54:37.788Z,20.20
2022-08-03T01:57:09.740Z,20.30
2022-08-03T01:59:42.248Z,20.30
2022-08-03T02:02:32.737Z,20.30
2022-08-03T02:05:10.642Z,20.20
2022-08-03T02:07:43.884Z,20.10
2022-08-03T02:10:16.352Z,20.10
2022-08-03T02:13:07.156Z,20.10
2022-08-03T02:15:39.506Z,20.10
2022-08-03T02:18:13.274Z,20.00
2022-08-03T02:20:45.901Z,20.00
2022-08-03T02:23:18.683Z,19.90
2022-08-03T02:25:53.000Z,19.90
2022-08-03T02:28:28.484Z,19.90
2022-08-03T02:31:00.483Z,19.80
2022-08-03T02:33:34.963Z,19.80
2022-08-03T02:36:06.513Z,19.80
2022-08-03T02:38:40.944Z,19.80
2022-08-03T02:41:17.147Z,19.80
2022-08-03T02:44:07.101Z,19.80
2022-08-03T02:46:41.942Z,19.80
2022-08-03T02:49:40.510Z,19.90
2022-08-03T02:52:12.619Z,19.90
2022-08-03T02:54:47.945Z,19.80
2022-08-03T02:57:20.295Z,19.70
2022-08-03T02:59:51.731Z,19.70
2022-08-03T03:02:23.054Z,19.70
2022-08-03T03:05:55.485Z,19.70
2022-08-03T03:07:52.963Z,19.70
2022-08-03T03:10:23.861Z,19.70
2022-08-03T03:12:56.604Z,19.70
2022-08-03T03:15:27.963Z,19.70
2022-08-03T03:17:57.747Z,19.70
2022-08-03T03:20:30.597Z,19.60
2022-08-03T03:23:01.613Z,19.60
2022-08-03T03:25:33.597Z,19.70
2022-08-03T03:28:06.472Z,19.70
2022-08-03T03:30:36.305Z,19.80
2022-08-03T03:33:05.523Z,19.80
2022-08-03T03:35:38.963Z,19.90
2022-08-03T03:38:08.771Z,19.90
2022-08-03T03:40:38.311Z,20.10
2022-08-03T03:43:10.078Z,20.30
2022-08-03T03:45:39.661Z,20.50
2022-08-03T03:48:09.497Z,20.60
2022-08-03T03:50:41.242Z,20.60
2022-08-03T03:53:12.015Z,20.60
2022-08-03T03:55:59.026Z,20.50
2022-08-03T03:58:31.596Z,20.30
2022-08-03T04:01:00.863Z,20.30
2022-08-03T04:03:30.218Z,20.30
2022-08-03T04:06:18.432Z,20.20
2022-08-03T04:09:16.503Z,20.30
2022-08-03T04:11:51.792Z,20.30
2022-08-03T04:14:24.199Z,20.30
2022-08-03T04:16:57.947Z,20.30
2022-08-03T04:19:32.312Z,20.30
2022-08-03T04:22:07.336Z,20.30
2022-08-03T04:24:41.478Z,20.30
2022-08-03T04:27:13.228Z,20.40
2022-08-03T04:29:48.598Z,20.50
2022-08-03T04:32:19.120Z,20.60
2022-08-03T04:34:48.864Z,20.90
2022-08-03T04:37:28.151Z,21.20
2022-08-03T04:40:00.345Z,21.50
2022-08-03T04:42:30.087Z,21.70
2022-08-03T04:45:01.700Z,21.80
2022-08-03T04:47:34.102Z,22.10
2022-08-03T04:50:04.157Z,22.60
2022-08-03T04:52:36.344Z,23.10
2022-08-03T04:55:05.906Z,23.50
2022-08-03T04:57:35.056Z,23.60
2022-08-03T05:00:04.916Z,23.50
2022-08-03T05:02:35.397Z,23.50
2022-08-03T05:05:05.414Z,23.40
2022-08-03T05:07:36.719Z,23.30
2022-08-03T05:10:15.074Z,23.20
2022-08-03T05:12:47.027Z,23.30
2022-08-03T05:15:16.506Z,23.20
2022-08-03T05:17:45.858Z,23.20
2022-08-03T05:20:16.611Z,23.00
2022-08-03T05:22:49.761Z,22.80
2022-08-03T05:25:21.391Z,22.80
2022-08-03T05:27:52.785Z,22.60
2022-08-03T05:30:29.703Z,22.60
2022-08-03T05:33:03.815Z,22.50
2022-08-03T05:35:55.769Z,22.30
2022-08-03T05:38:34.315Z,22.50
2022-08-03T05:41:20.244Z,22.60
2022-08-03T05:43:50.706Z,22.80
2022-08-03T05:46:19.926Z,23.40
2022-08-03T05:48:49.214Z,24.00
2022-08-03T05:51:18.699Z,24.50
2022-08-03T05:53:49.499Z,24.90
2022-08-03T05:56:18.757Z,25.00
2022-08-03T05:58:48.837Z,25.10
2022-08-03T06:01:18.915Z,25.20
2022-08-03T06:03:49.188Z,25.10
2022-08-03T06:06:18.437Z,24.90
2022-08-03T06:08:49.157Z,24.90
2022-08-03T06:11:19.009Z,24.80
2022-08-03T06:13:48.168Z,24.80
2022-08-03T06:16:17.437Z,24.90
2022-08-03T06:18:47.477Z,25.00
2022-08-03T06:21:17.247Z,25.10
2022-08-03T06:23:54.601Z,25.50
2022-08-03T06:26:26.597Z,26.20
2022-08-03T06:28:56.158Z,26.70
2022-08-03T06:31:32.708Z,26.90
2022-08-03T06:34:33.936Z,27.10
2022-08-03T06:37:01.392Z,27.40
2022-08-03T06:39:32.762Z,27.80
2022-08-03T06:42:01.981Z,28.00
2022-08-03T06:44:31.206Z,28.10
2022-08-03T06:47:00.472Z,28.10
2022-08-03T06:49:29.701Z,28.00
2022-08-03T06:52:05.785Z,27.80
2022-08-03T06:54:40.491Z,27.70
2022-08-03T06:57:11.892Z,27.50
2022-08-03T07:00:10.827Z,27.40
2022-08-03T07:02:30.421Z,27.30
2022-08-03T07:04:59.871Z,27.20
2022-08-03T07:07:29.005Z,27.20
2022-08-03T07:09:59.605Z,27.20
2022-08-03T07:12:29.796Z,27.10
2022-08-03T07:15:01.899Z,27.10
2022-08-03T07:17:34.605Z,27.20
2022-08-03T07:20:06.375Z,27.50
2022-08-03T07:22:35.832Z,27.80
2022-08-03T07:25:07.386Z,28.10
2022-08-03T07:27:36.695Z,28.50
2022-08-03T07:30:09.717Z,29.40
2022-08-03T07:32:50.166Z,30.00
2022-08-03T07:35:24.969Z,30.30
2022-08-03T07:37:55.226Z,30.70
2022-08-03T07:40:31.946Z,31.30
2022-08-03T07:43:03.597Z,32.00
2022-08-03T07:45:33.160Z,32.50
2022-08-03T07:48:02.594Z,33.20
2022-08-03T07:50:31.882Z,33.90
2022-08-03T07:53:01.114Z,34.30
2022-08-03T07:55:32.084Z,34.70
2022-08-03T07:58:06.688Z,34.60
2022-08-03T08:00:36.365Z,34.30
2022-08-03T08:03:05.964Z,34.00
2022-08-03T08:05:36.036Z,34.10
2022-08-03T08:08:06.218Z,34.40
2022-08-03T08:10:37.505Z,34.70
2022-08-03T08:13:07.158Z,34.20
2022-08-03T08:15:36.684Z,33.10
2022-08-03T08:18:13.081Z,32.30
2022-08-03T08:20:42.631Z,31.90
2022-08-03T08:23:37.879Z,31.80
2022-08-03T08:26:04.090Z,32.10
2022-08-03T08:28:33.923Z,32.60
2022-08-03T08:31:03.526Z,33.00
2022-08-03T08:34:02.631Z,33.20
2022-08-03T08:36:24.328Z,32.40
2022-08-03T08:38:53.725Z,32.10
2022-08-03T08:41:24.694Z,32.30
2022-08-03T08:44:01.878Z,32.40
2022-08-03T08:46:34.874Z,32.30
2022-08-03T08:49:04.982Z,31.60
2022-08-03T08:51:50.461Z,31.40
2022-08-03T08:54:27.968Z,31.40
2022-08-03T08:57:09.117Z,31.80
2022-08-03T08:59:48.262Z,31.80
2022-08-03T09:02:19.831Z,31.70
2022-08-03T09:04:50.038Z,31.90
2022-08-03T09:07:29.074Z,32.30
2022-08-03T09:10:11.255Z,32.60
2022-08-03T09:12:46.335Z,33.00
2022-08-03T09:15:20.755Z,33.40
2022-08-03T09:17:51.503Z,33.80
2022-08-03T09:20:22.220Z,33.50
2022-08-03T09:22:57.045Z,33.50
2022-08-03T09:25:31.519Z,33.90
2022-08-03T09:28:11.298Z,34.00
2022-08-03T09:30:42.296Z,33.50
2022-08-03T09:33:14.586Z,32.30
2022-08-03T09:35:53.599Z,32.10
2022-08-03T09:38:26.607Z,32.00
2022-08-03T09:41:00.313Z,32.00
2022-08-03T09:43:48.379Z,32.00
2022-08-03T09:46:17.730Z,32.00
2022-08-03T09:48:47.170Z,32.00
2022-08-03T09:51:32.925Z,32.00
2022-08-03T09:54:16.355Z,32.20
2022-08-03T09:56:48.899Z,31.80
2022-08-03T09:59:28.049Z,31.90
2022-08-03T10:02:00.283Z,32.20
2022-08-03T10:04:30.323Z,32.40
2022-08-03T10:07:07.980Z,32.70
2022-08-03T10:09:37.770Z,32.60
2022-08-03T10:12:12.033Z,32.40
2022-08-03T10:14:45.858Z,32.10
2022-08-03T10:17:15.921Z,32.00
2022-08-03T10:19:45.691Z,32.10
2022-08-03T10:22:17.190Z,31.90
2022-08-03T10:24:53.971Z,31.20
2022-08-03T10:27:25.109Z,31.00
2022-08-03T10:29:57.817Z,31.30
2022-08-03T10:32:31.906Z,31.40
2022-08-03T10:35:19.763Z,31.20
2022-08-03T10:37:58.644Z,30.80
2022-08-03T10:43:23.199Z,31.20
2022-08-03T10:45:54.206Z,31.20
2022-08-03T10:48:24.169Z,31.50
2022-08-03T10:50:54.221Z,31.30
2022-08-03T10:53:38.063Z,31.40
2022-08-03T10:56:42.797Z,30.90
2022-08-03T10:59:28.052Z,30.80
2022-08-03T11:02:00.672Z,30.70
2022-08-03T11:04:30.927Z,30.90
2022-08-03T11:07:24.757Z,30.90
2022-08-03T11:09:55.996Z,30.90
2022-08-03T11:12:30.734Z,31.00
2022-08-03T11:15:03.491Z,30.70
2022-08-03T11:17:46.505Z,30.20
2022-08-03T11:20:50.035Z,30.10
2022-08-03T11:24:02.179Z,30.50
2022-08-03T11:26:15.155Z,30.80
2022-08-03T11:28:46.288Z,31.40
2022-08-03T11:31:51.657Z,31.90
2022-08-03T11:34:22.766Z,32.50
2022-08-03T11:37:21.007Z,32.70
2022-08-03T11:39:55.343Z,32.40
2022-08-03T11:42:47.620Z,32.20
2022-08-03T11:45:20.066Z,32.00
2022-08-03T11:47:51.609Z,31.80
2022-08-03T11:50:24.144Z,31.30
2022-08-03T11:52:53.759Z,30.60
2022-08-03T11:55:25.009Z,30.30
2022-08-03T11:59:13.239Z,30.60
2022-08-03T12:00:52.156Z,31.00
2022-08-03T12:03:22.778Z,31.30
2022-08-03T12:05:55.359Z,31.60
2022-08-03T12:08:35.029Z,32.00
2022-08-03T12:11:07.110Z,31.60
2022-08-03T12:14:37.373Z,31.60
2022-08-03T12:16:33.871Z,31.90
2022-08-03T12:19:05.326Z,32.20
2022-08-03T12:21:36.104Z,32.30
2022-08-03T12:24:06.922Z,32.50
2022-08-03T12:26:58.816Z,32.70
2022-08-03T12:29:29.054Z,32.70
2022-08-03T12:31:58.723Z,32.20
2022-08-03T12:34:48.694Z,32.20
2022-08-03T12:37:23.549Z,32.40
2022-08-03T12:40:02.213Z,32.50
2022-08-03T12:42:36.662Z,32.20
2022-08-03T12:45:23.329Z,32.10
2022-08-03T12:47:54.820Z,32.10
2022-08-03T12:50:31.587Z,32.10
2022-08-03T12:53:03.430Z,32.10
2022-08-03T12:55:56.557Z,32.10
2022-08-03T12:58:34.495Z,32.20
2022-08-03T13:01:09.145Z,32.20
2022-08-03T13:03:45.805Z,32.30
2022-08-03T13:06:20.818Z,32.10
2022-08-03T13:08:52.513Z,31.50
2022-08-03T13:11:55.523Z,30.90
2022-08-03T13:14:19.994Z,30.60
2022-08-03T13:16:50.174Z,30.40
2022-08-03T13:19:19.534Z,30.50
2022-08-03T13:22:01.889Z,30.60
2022-08-03T13:24:35.869Z,30.50
2022-08-03T13:28:04.794Z,30.40
2022-08-03T13:29:55.008Z,30.50
2022-08-03T13:32:24.916Z,30.60
2022-08-03T13:34:54.451Z,30.40
2022-08-03T13:37:24.714Z,30.20
2022-08-03T13:39:58.957Z,30.30
2022-08-03T13:42:31.586Z,30.10
2022-08-03T13:45:01.673Z,30.00
2022-08-03T13:47:31.166Z,29.80
2022-08-03T13:50:02.810Z,29.70
2022-08-03T13:52:34.674Z,29.70
2022-08-03T13:55:07.315Z,29.60
2022-08-03T13:58:04.606Z,29.50
2022-08-03T14:00:29.195Z,29.30
2022-08-03T14:03:06.739Z,29.20
2022-08-03T14:05:41.883Z,29.20
2022-08-03T14:08:12.075Z,29.20
2022-08-03T14:10:44.927Z,29.10
2022-08-03T14:13:17.604Z,29.00
2022-08-03T14:15:49.962Z,28.90
2022-08-03T14:18:27.633Z,28.90
2022-08-03T14:21:01.972Z,28.90
2022-08-03T14:23:34.624Z,28.80
2022-08-03T14:26:05.625Z,28.80
2022-08-03T14:28:34.976Z,28.60
2022-08-03T14:31:04.419Z,28.70
2022-08-03T14:33:38.075Z,28.70
2022-08-03T14:36:07.894Z,28.60
2022-08-03T14:38:37.176Z,28.70
2022-08-03T14:41:12.196Z,28.80
2022-08-03T14:44:02.227Z,28.80
2022-08-03T14:46:32.674Z,28.80
2022-08-03T14:50:28.572Z,28.80
2022-08-03T14:51:53.727Z,29.00
2022-08-03T14:54:24.137Z,29.00
2022-08-03T14:56:54.877Z,29.10
2022-08-03T14:59:24.019Z,29.20
2022-08-03T15:02:02.923Z,29.10
2022-08-03T15:04:35.802Z,29.10
2022-08-03T15:07:05.505Z,29.20
2022-08-03T15:09:34.957Z,29.20
2022-08-03T15:12:06.609Z,29.30
2022-08-03T15:14:37.849Z,29.30
2022-08-03T15:17:07.471Z,29.20
2022-08-03T15:20:01.595Z,29.30
2022-08-03T15:22:34.649Z,29.20
2022-08-03T15:26:04.010Z,29.10
2022-08-03T15:28:04.168Z,29.10
2022-08-03T15:30:38.040Z,29.10
2022-08-03T15:33:07.960Z,29.10
2022-08-03T15:35:37.408Z,29.10
2022-08-03T15:38:09.475Z,28.90
2022-08-03T15:40:39.503Z,28.90
2022-08-03T15:43:10.732Z,28.80
2022-08-03T15:45:41.948Z,28.70
2022-08-03T15:48:11.923Z,28.70
2022-08-03T15:50:41.814Z,28.70
2022-08-03T15:53:12.953Z,28.80
2022-08-03T15:55:42.471Z,28.80
2022-08-03T15:59:10.240Z,28.80
2022-08-03T16:01:04.836Z,28.70
2022-08-03T16:03:35.738Z,28.60
2022-08-03T16:06:05.867Z,28.60
2022-08-03T16:08:35.777Z,28.40
2022-08-03T16:11:05.042Z,28.50
2022-08-03T16:14:11.909Z,28.50
2022-08-03T16:16:25.131Z,28.50
2022-08-03T16:18:54.570Z,28.60
2022-08-03T16:21:23.832Z,28.70
2022-08-03T16:23:57.509Z,28.60
2022-08-03T16:26:27.635Z,28.80
2022-08-03T16:29:00.438Z,28.80
2022-08-03T16:31:31.745Z,28.90
2022-08-03T16:34:01.058Z,28.90
2022-08-03T16:36:34.867Z,28.90
2022-08-03T16:39:04.278Z,28.80
2022-08-03T16:41:54.273Z,28.80
2022-08-03T16:44:24.259Z,28.90
2022-08-03T16:46:56.348Z,28.80
2022-08-03T16:49:54.128Z,28.80
2022-08-03T16:52:16.825Z,28.80
2022-08-03T16:54:52.537Z,28.70
2022-08-03T16:57:56.280Z,28.70
2022-08-03T17:00:32.893Z,28.70
2022-08-03T17:03:18.904Z,28.70
2022-08-03T17:05:50.439Z,28.60
2022-08-03T17:08:26.764Z,28.70
2022-08-03T17:10:57.658Z,28.50
2022-08-03T17:13:38.839Z,28.50
2022-08-03T17:16:15.403Z,28.50
2022-08-03T17:18:51.762Z,28.50
2022-08-03T17:21:29.510Z,28.50
2022-08-03T17:24:05.309Z,28.40
2022-08-03T17:26:44.793Z,28.40
2022-08-03T17:29:18.491Z,28.30
2022-08-03T17:31:54.543Z,28.30
2022-08-03T17:34:26.602Z,28.30
2022-08-03T17:37:04.781Z,28.20
2022-08-03T17:39:58.176Z,28.20
2022-08-03T17:42:30.634Z,28.20
2022-08-03T17:47:58.258Z,28.20
2022-08-03T17:50:40.267Z,28.10
2022-08-03T17:53:23.432Z,28.10
2022-08-03T17:56:38.784Z,28.10
2022-08-03T17:59:08.374Z,28.00
2022-08-03T18:02:12.218Z,28.00
2022-08-03T18:05:02.210Z,28.00
2022-08-03T18:07:47.953Z,27.80
2022-08-03T18:10:22.515Z,27.80
2022-08-03T18:13:04.381Z,27.80
2022-08-03T18:15:44.881Z,27.70
2022-08-03T18:18:29.286Z,27.70
2022-08-03T18:21:06.507Z,27.70
2022-08-03T18:23:39.870Z,27.60
2022-08-03T18:26:12.287Z,27.60
2022-08-03T18:28:43.584Z,27.60
2022-08-03T18:32:03.982Z,27.50
2022-08-03T18:34:19.660Z,27.50
2022-08-03T18:36:57.887Z,27.50
2022-08-03T18:39:32.837Z,27.50
2022-08-03T18:42:20.057Z,27.40
2022-08-03T18:44:56.928Z,27.00
2022-08-03T18:47:53.146Z,27.00
2022-08-03T18:50:30.930Z,27.00
2022-08-03T18:53:15.638Z,26.90
2022-08-03T18:56:01.820Z,26.90
2022-08-03T18:58:41.081Z,26.80
2022-08-03T19:01:59.929Z,26.80
2022-08-03T19:04:13.865Z,26.80
2022-08-03T19:06:46.030Z,26.70
2022-08-03T19:09:27.891Z,26.70
2022-08-03T19:12:12.282Z,26.80
2022-08-03T19:14:47.798Z,26.80
2022-08-03T19:17:21.227Z,26.60
2022-08-03T19:19:53.577Z,26.50
2022-08-03T19:22:27.562Z,26.50
2022-08-03T19:25:01.421Z,26.40
2022-08-03T19:27:32.236Z,26.30
2022-08-03T19:30:06.889Z,26.30
2022-08-03T19:32:42.068Z,26.30
2022-08-03T19:35:19.043Z,26.20
2022-08-03T19:38:07.535Z,26.10
2022-08-03T19:40:43.426Z,26.00
2022-08-03T19:43:24.316Z,26.00
2022-08-03T19:46:07.831Z,26.00
2022-08-03T19:48:39.269Z,25.90
2022-08-03T19:51:12.773Z,25.90
2022-08-03T19:53:45.384Z,25.80
2022-08-03T19:56:18.218Z,25.80
2022-08-03T19:58:53.220Z,25.70
2022-08-03T20:01:23.213Z,25.70
2022-08-03T20:03:53.714Z,25.60
2022-08-03T20:06:24.885Z,25.60
2022-08-03T20:08:56.078Z,25.60
2022-08-03T20:11:29.952Z,25.50
2022-08-03T20:14:00.715Z,25.40
2022-08-03T20:16:30.115Z,25.40
2022-08-03T20:19:00.044Z,25.40
2022-08-03T20:21:35.931Z,25.30
2022-08-03T20:24:24.246Z,25.20
2022-08-03T20:27:00.474Z,25.20
2022-08-03T20:30:05.418Z,25.10
2022-08-03T20:32:24.621Z,25.10
2022-08-03T20:34:54.119Z,25.00
2022-08-03T20:37:24.736Z,25.10
2022-08-03T20:39:54.601Z,25.00
2022-08-03T20:42:25.220Z,24.90
2022-08-03T20:45:05.616Z,24.80
2022-08-03T20:47:50.976Z,24.70
2022-08-03T20:50:22.549Z,24.60
2022-08-03T20:52:51.658Z,24.60
2022-08-03T20:55:47.946Z,24.50
2022-08-03T20:58:12.188Z,24.40
2022-08-03T21:00:43.596Z,24.30
2022-08-03T21:03:12.777Z,24.10
2022-08-03T21:05:48.220Z,23.90
2022-08-03T21:08:24.022Z,23.70
2022-08-03T21:10:55.056Z,23.60
2022-08-03T21:12:55.019Z,28.10
2022-08-03T21:13:35.205Z,23.70
2022-08-03T21:16:14.025Z,23.70
2022-08-03T21:18:47.910Z,23.70
2022-08-03T21:21:19.901Z,23.70
2022-08-03T21:23:52.011Z,23.70
2022-08-03T21:26:22.625Z,23.70
2022-08-03T21:28:55.514Z,23.70
2022-08-03T21:31:26.946Z,23.70
2022-08-03T21:33:58.616Z,23.70
2022-08-03T21:36:28.954Z,23.70
2022-08-03T21:38:59.061Z,23.60
2022-08-03T21:41:29.827Z,23.60
2022-08-03T21:44:02.211Z,23.50
2022-08-03T21:46:35.805Z,23.50
2022-08-03T21:50:07.811Z,23.50
2022-08-03T21:51:57.694Z,23.40
2022-08-03T21:54:34.492Z,23.30
2022-08-03T21:57:06.314Z,23.10
2022-08-03T21:59:39.367Z,22.90
2022-08-03T22:02:13.831Z,22.80
2022-08-03T22:04:56.202Z,22.80
2022-08-03T22:07:28.482Z,22.80
2022-08-03T22:09:58.655Z,22.80
2022-08-03T22:12:30.149Z,22.70
2022-08-03T22:15:03.913Z,22.70
2022-08-03T22:17:53.986Z,22.60
2022-08-03T22:20:24.847Z,22.50
2022-08-03T22:22:57.103Z,22.50
2022-08-03T22:25:30.873Z,22.50
2022-08-03T22:28:01.769Z,22.50
2022-08-03T22:30:33.420Z,22.40
2022-08-03T22:33:04.497Z,22.40
2022-08-03T22:35:44.359Z,22.30
2022-08-03T22:38:17.962Z,22.30
2022-08-03T22:40:50.053Z,22.20
2022-08-03T22:43:19.207Z,22.20
2022-08-03T22:46:10.628Z,22.20
2022-08-03T22:48:41.482Z,22.20
2022-08-03T22:51:11.783Z,22.10
2022-08-03T22:53:41.053Z,22.00
2022-08-03T22:56:10.215Z,21.90
2022-08-03T22:58:39.327Z,21.80
2022-08-03T23:01:11.779Z,21.80
2022-08-03T23:03:59.690Z,21.80
2022-08-03T23:06:36.042Z,21.70
2022-08-03T23:09:11.303Z,21.70
2022-08-03T23:11:45.791Z,21.60
2022-08-03T23:14:16.987Z,21.60
2022-08-03T23:16:51.703Z,21.60
2022-08-03T23:19:25.441Z,21.50
2022-08-03T23:22:02.626Z,21.50
2022-08-03T23:24:35.989Z,21.60
2022-08-03T23:27:05.965Z,21.60
2022-08-03T23:29:37.296Z,21.60
2022-08-03T23:32:08.851Z,21.60
2022-08-03T23:34:58.483Z,21.50
2022-08-03T23:37:27.772Z,21.60
2022-08-03T23:39:58.606Z,21.60
2022-08-03T23:42:28.893Z,21.50
2022-08-03T23:45:06.219Z,21.50
2022-08-03T23:47:46.251Z,21.50
2022-08-03T23:50:16.683Z,21.40
2022-08-03T23:52:54.675Z,21.40
2022-08-03T23:55:35.853Z,21.50
2022-08-03T23:58:11.329Z,21.50
